Time;durP1;ratioP1;P1;durP2;ratioP2;P2;SDS_P1;SDS_P2;PMS_P1;PMS_P2;Temp;Humidity;BMP_temperature;BMP_pressure;BME280_temperature;BME280_humidity;BME280_pressure;Samples;Min_cycle;Max_cycle;Signal;HPM_P1;HPM_P2
2021/09/29 00:00:38;;;;;;;34.03;20.15;;;;;;;14.09;100.00;98128.69;4903981;29;20054;-79
2021/09/29 00:03:06;;;;;;;35.15;19.83;;;;;;;14.03;100.00;98128.06;4902895;29;20055;-79
2021/09/29 00:05:33;;;;;;;32.28;18.92;;;;;;;14.08;100.00;98130.59;4885566;29;20036;-78
2021/09/29 00:08:08;;;;;;;35.50;18.20;;;;;;;14.25;100.00;98121.53;4869688;29;20100;-79
2021/09/29 00:10:36;;;;;;;28.52;18.60;;;;;;;14.20;100.00;98121.72;4869454;29;20055;-79
2021/09/29 00:13:03;;;;;;;36.45;19.27;;;;;;;14.17;100.00;98123.19;4901908;29;20536;-79
2021/09/29 00:15:30;;;;;;;32.35;18.02;;;;;;;14.27;100.00;98113.88;4868228;29;20056;-77
2021/09/29 00:17:57;;;;;;;36.80;18.70;;;;;;;14.20;100.00;98117.09;4898879;29;20083;-78
2021/09/29 00:20:23;;;;;;;32.78;18.27;;;;;;;14.30;100.00;98088.69;4886897;29;20044;-79
2021/09/29 00:22:50;;;;;;;36.25;19.23;;;;;;;14.17;100.00;98089.69;4903458;29;20044;-78
2021/09/29 00:25:17;;;;;;;34.30;18.23;;;;;;;14.13;100.00;98086.84;4888150;29;20743;-80
2021/09/29 00:27:44;;;;;;;31.55;18.42;;;;;;;14.08;100.00;98094.41;4875339;29;20048;-80
2021/09/29 00:30:12;;;;;;;33.97;18.55;;;;;;;13.89;100.00;98085.81;4910031;29;20056;-80
2021/09/29 00:32:41;;;;;;;33.65;18.95;;;;;;;13.89;100.00;98093.97;4894653;29;20469;-80
2021/09/29 00:35:11;;;;;;;34.80;19.10;;;;;;;13.79;100.00;98084.22;4886023;29;20041;-79
2021/09/29 00:37:40;;;;;;;34.17;20.33;;;;;;;13.95;100.00;98098.94;4868410;29;20040;-77
2021/09/29 00:40:08;;;;;;;38.15;20.13;;;;;;;13.93;100.00;98093.00;4884784;29;20056;-78
2021/09/29 00:42:38;;;;;;;36.50;19.47;;;;;;;13.71;100.00;98060.56;4915417;23;20043;-80
2021/09/29 00:45:06;;;;;;;31.60;18.95;;;;;;;14.04;100.00;98083.34;4893774;29;20815;-82
2021/09/29 00:47:34;;;;;;;31.52;19.02;;;;;;;14.11;100.00;98074.69;4892431;29;20048;-84
2021/09/29 00:50:03;;;;;;;32.65;18.48;;;;;;;14.16;100.00;98088.91;4868338;29;20076;-84
2021/09/29 00:52:32;;;;;;;29.60;17.63;;;;;;;14.06;100.00;98083.03;4881582;29;20049;-84
2021/09/29 00:54:58;;;;;;;33.75;18.30;;;;;;;14.20;100.00;98095.31;4866277;29;20045;-80
2021/09/29 00:57:25;;;;;;;34.58;18.15;;;;;;;14.15;100.00;98078.34;4881681;29;20041;-83
2021/09/29 00:59:52;;;;;;;33.03;18.00;;;;;;;14.33;100.00;98082.63;4940528;23;20055;-79
2021/09/29 01:02:20;;;;;;;31.83;17.00;;;;;;;14.37;100.00;98093.66;4904940;29;20054;-81
2021/09/29 01:04:48;;;;;;;27.63;17.88;;;;;;;14.51;100.00;98072.41;4900536;29;20052;-79
2021/09/29 01:07:29;;;;;;;38.15;19.42;;;;;;;14.38;100.00;98063.34;4884762;29;20062;-78
2021/09/29 01:10:12;;;;;;;32.42;18.63;;;;;;;14.51;100.00;98072.41;4901679;29;20051;-77
2021/09/29 01:12:48;;;;;;;31.67;16.70;;;;;;;14.62;100.00;98060.81;4900273;29;20229;-81
2021/09/29 01:15:30;;;;;;;31.08;18.02;;;;;;;14.58;100.00;98062.59;4901015;29;20048;-78
2021/09/29 01:18:02;;;;;;;29.60;16.98;;;;;;;14.60;100.00;98049.47;4901257;29;20142;-80
2021/09/29 01:20:37;;;;;;;32.90;17.35;;;;;;;14.63;100.00;98040.63;4902131;29;20104;-80
2021/09/29 01:23:18;;;;;;;35.55;17.95;;;;;;;14.57;100.00;98036.50;4902058;29;20453;-77
2021/09/29 01:25:48;;;;;;;26.63;16.52;;;;;;;14.62;100.00;98039.03;4902935;29;20135;-81
2021/09/29 01:28:19;;;;;;;27.83;17.13;;;;;;;14.50;100.00;98030.78;4885508;29;20142;-80
2021/09/29 01:30:46;;;;;;;34.45;17.77;;;;;;;14.50;100.00;98028.06;4902157;29;20048;-81
2021/09/29 01:33:14;;;;;;;29.00;17.38;;;;;;;14.60;100.00;98032.31;4901340;29;20095;-80
2021/09/29 01:35:41;;;;;;;33.08;16.23;;;;;;;14.58;100.00;98015.50;4885318;29;20079;-80
2021/09/29 01:38:08;;;;;;;30.85;17.55;;;;;;;14.58;100.00;98021.72;4900770;29;20100;-79
2021/09/29 01:40:35;;;;;;;29.00;17.20;;;;;;;14.53;100.00;98004.81;4900687;29;20144;-81
2021/09/29 01:43:02;;;;;;;29.55;16.13;;;;;;;14.63;100.00;98002.47;4900641;29;20048;-79
2021/09/29 01:45:29;;;;;;;30.40;17.60;;;;;;;14.70;100.00;98010.91;4917004;29;20055;-81
2021/09/29 01:47:56;;;;;;;28.88;16.75;;;;;;;14.63;100.00;98010.66;4901436;29;20044;-81
2021/09/29 01:50:28;;;;;;;30.10;17.40;;;;;;;14.70;100.00;98005.47;4887319;29;20080;-79
2021/09/29 01:52:59;;;;;;;28.92;16.40;;;;;;;14.67;100.00;98010.78;4902343;29;20142;-80
2021/09/29 01:55:27;;;;;;;33.53;17.42;;;;;;;14.63;100.00;98004.41;4902125;29;20437;-78
2021/09/29 01:57:55;;;;;;;26.33;16.55;;;;;;;14.56;100.00;97998.66;4885960;29;20063;-79
2021/09/29 02:00:25;;;;;;;30.67;16.73;;;;;;;14.72;100.00;97999.66;4901292;29;20075;-81
2021/09/29 02:02:59;;;;;;;32.40;17.38;;;;;;;14.72;100.00;98007.84;4887721;29;20075;-78
2021/09/29 02:05:32;;;;;;;31.45;17.17;;;;;;;14.66;100.00;97999.06;4903136;29;20139;-80
2021/09/29 02:08:03;;;;;;;30.83;17.88;;;;;;;14.72;100.00;97991.50;4902401;29;20048;-81
2021/09/29 02:10:29;;;;;;;31.88;18.15;;;;;;;14.73;100.00;97988.47;4918505;29;20131;-80
2021/09/29 02:12:56;;;;;;;33.15;17.33;;;;;;;14.70;100.00;97994.56;4904731;29;20052;-80
2021/09/29 02:15:23;;;;;;;30.23;17.00;;;;;;;14.75;100.00;97988.91;4907398;29;20048;-81
2021/09/29 02:17:52;;;;;;;33.75;17.55;;;;;;;14.80;100.00;97990.63;4906715;29;20056;-81
2021/09/29 02:20:19;;;;;;;30.48;17.38;;;;;;;14.70;100.00;97977.41;4893304;29;20052;-81
2021/09/29 02:22:46;;;;;;;32.42;17.63;;;;;;;14.78;100.00;97980.06;4893987;29;20068;-78
2021/09/29 02:25:13;;;;;;;29.27;17.70;;;;;;;14.72;100.00;97973.22;4914273;29;20054;-81
2021/09/29 02:27:40;;;;;;;28.17;17.88;;;;;;;14.69;100.00;97978.53;4917353;29;20077;-79
2021/09/29 02:30:09;;;;;;;38.30;18.38;;;;;;;14.77;100.00;97978.47;4935691;29;20047;-79
2021/09/29 02:32:37;;;;;;;35.38;19.20;;;;;;;14.53;100.00;97969.38;4933198;29;20063;-79
2021/09/29 02:35:07;;;;;;;35.38;17.98;;;;;;;14.63;100.00;97967.06;4917421;29;20040;-80
2021/09/29 02:37:34;;;;;;;31.45;18.05;;;;;;;14.73;100.00;97958.47;4915378;29;20124;-81
2021/09/29 02:40:01;;;;;;;34.17;18.42;;;;;;;14.61;100.00;97963.03;4914736;29;20312;-80
2021/09/29 02:42:28;;;;;;;32.58;18.73;;;;;;;14.51;100.00;97958.78;4898925;29;20058;-79
2021/09/29 02:44:55;;;;;;;42.85;20.75;;;;;;;14.37;100.00;97952.84;4899444;29;20153;-78
2021/09/29 02:47:21;;;;;;;41.55;20.48;;;;;;;14.32;100.00;97950.31;4898150;29;20079;-81
2021/09/29 02:49:48;;;;;;;35.67;19.58;;;;;;;14.51;100.00;97963.44;4889369;29;20541;-80
2021/09/29 02:52:15;;;;;;;44.78;21.60;;;;;;;14.31;100.00;97956.88;4900980;29;20060;-81
2021/09/29 02:54:42;;;;;;;39.53;20.25;;;;;;;14.26;100.00;97943.41;4902016;29;20048;-79
2021/09/29 02:57:08;;;;;;;38.47;20.73;;;;;;;14.28;100.00;97950.13;4901434;29;20099;-81
2021/09/29 02:59:36;;;;;;;43.72;20.63;;;;;;;14.26;100.00;97955.13;4901974;29;20068;-78
2021/09/29 03:02:02;;;;;;;40.17;21.10;;;;;;;14.19;100.00;97952.13;4885543;29;20044;-80
2021/09/29 03:04:29;;;;;;;44.63;21.25;;;;;;;14.13;100.00;97953.44;4885967;29;20083;-80
2021/09/29 03:06:56;;;;;;;44.60;21.50;;;;;;;14.11;100.00;97949.44;4901463;29;20055;-78
2021/09/29 03:09:23;;;;;;;38.28;20.45;;;;;;;14.16;100.00;97950.06;4917605;29;20044;-79
2021/09/29 03:11:50;;;;;;;45.13;21.55;;;;;;;14.17;100.00;97943.47;4886691;29;20146;-80
2021/09/29 03:14:17;;;;;;;40.95;20.63;;;;;;;14.11;100.00;97944.00;4900276;29;20075;-81
2021/09/29 03:16:43;;;;;;;43.47;21.50;;;;;;;14.09;100.00;97941.59;4885698;29;20108;-81
2021/09/29 03:19:10;;;;;;;38.67;20.45;;;;;;;14.14;100.00;97944.13;4916013;29;20050;-78
2021/09/29 03:21:37;;;;;;;37.45;18.65;;;;;;;14.16;100.00;97939.16;4900894;29;20135;-81
2021/09/29 03:24:04;;;;;;;42.20;21.08;;;;;;;13.99;100.00;97931.09;4917283;29;20050;-79
2021/09/29 03:26:31;;;;;;;41.35;19.17;;;;;;;14.17;100.00;97929.03;4900896;29;20051;-78
2021/09/29 03:28:57;;;;;;;40.60;19.85;;;;;;;14.19;100.00;97930.34;4885086;29;20044;-81
2021/09/29 03:31:25;;;;;;;35.17;19.23;;;;;;;14.13;100.00;97919.97;4886227;29;20784;-81
2021/09/29 03:33:54;;;;;;;36.35;18.45;;;;;;;14.12;100.00;97930.03;4910346;29;20147;-81
2021/09/29 03:36:21;;;;;;;37.38;20.35;;;;;;;14.10;100.00;97915.97;4895378;29;20051;-79
2021/09/29 03:38:48;;;;;;;43.50;20.33;;;;;;;14.18;100.00;97917.03;4919712;29;20130;-81
2021/09/29 03:41:14;;;;;;;34.67;17.85;;;;;;;14.15;100.00;97914.97;4934278;29;20140;-81
2021/09/29 03:43:41;;;;;;;40.00;19.90;;;;;;;14.13;100.00;97919.97;4902945;29;20058;-80
2021/09/29 03:46:08;;;;;;;37.40;19.00;;;;;;;14.21;100.00;97910.94;4919114;29;20071;-81
2021/09/29 03:48:34;;;;;;;36.83;19.45;;;;;;;14.20;100.00;97914.78;4911330;29;20139;-81
2021/09/29 03:51:01;;;;;;;37.30;19.67;;;;;;;14.21;100.00;97910.94;4884192;29;20111;-81
2021/09/29 03:53:28;;;;;;;45.92;19.70;;;;;;;14.25;100.00;97898.22;4901028;29;20055;-80
2021/09/29 03:55:54;;;;;;;48.40;22.35;;;;;;;14.17;100.00;97896.38;4917822;29;20052;-79
2021/09/29 03:58:21;;;;;;;46.65;23.48;;;;;;;14.11;100.00;97900.44;4884901;29;20052;-81
2021/09/29 04:00:48;;;;;;;48.88;24.55;;;;;;;14.17;100.00;97909.97;4884301;29;20234;-80
2021/09/29 04:03:15;;;;;;;58.00;27.13;;;;;;;14.25;100.00;97911.84;4895815;29;20063;-80
2021/09/29 04:05:42;;;;;;;59.60;26.88;;;;;;;14.35;100.00;97898.66;4899855;29;20052;-79
2021/09/29 04:08:10;;;;;;;65.43;27.92;;;;;;;14.32;100.00;97901.28;4904841;29;20123;-80
2021/09/29 04:10:37;;;;;;;59.83;26.30;;;;;;;14.37;100.00;97895.63;4917625;29;20090;-80
2021/09/29 04:13:03;;;;;;;66.93;29.15;;;;;;;14.35;100.00;97898.66;4886209;29;20112;-79
2021/09/29 04:15:30;;;;;;;70.50;29.35;;;;;;;14.47;100.00;97906.13;4886913;29;20079;-78
2021/09/29 04:17:57;;;;;;;61.13;28.63;;;;;;;14.60;100.00;97888.69;4888388;29;20108;-79
2021/09/29 04:20:24;;;;;;;70.28;29.17;;;;;;;14.68;100.00;97898.72;4883375;29;20462;-78
2021/09/29 04:22:51;;;;;;;67.68;28.88;;;;;;;14.74;100.00;97883.75;4884083;29;20089;-78
2021/09/29 04:25:18;;;;;;;71.53;29.77;;;;;;;14.74;100.00;97882.94;4883325;29;20113;-81
2021/09/29 04:27:45;;;;;;;76.50;30.55;;;;;;;14.79;100.00;97891.72;4883055;29;20070;-81
2021/09/29 04:30:14;;;;;;;79.43;31.40;;;;;;;14.80;100.00;97893.31;4883775;29;20065;-81
2021/09/29 04:32:42;;;;;;;80.13;31.30;;;;;;;14.92;100.00;97887.88;4884381;29;20109;-81
2021/09/29 04:35:10;;;;;;;68.95;30.25;;;;;;;14.97;100.00;97886.88;4899902;29;20044;-81
2021/09/29 04:37:38;;;;;;;74.63;31.90;;;;;;;14.97;100.00;97881.41;4901634;29;20281;-79
2021/09/29 04:40:06;;;;;;;66.93;30.42;;;;;;;15.09;100.00;97892.38;4913721;29;20044;-79
2021/09/29 04:42:33;;;;;;;62.80;29.10;;;;;;;15.13;100.00;97887.03;4884339;29;20052;-80
2021/09/29 04:45:00;;;;;;;70.90;30.20;;;;;;;15.16;100.00;97883.63;4884823;29;20634;-78
2021/09/29 04:47:28;;;;;;;62.45;27.50;;;;;;;15.20;100.00;97887.28;4897393;29;20147;-79
2021/09/29 04:49:55;;;;;;;66.43;30.13;;;;;;;15.24;100.00;97874.56;4903482;29;20071;-79
2021/09/29 04:52:23;;;;;;;58.85;27.33;;;;;;;15.21;100.00;97876.03;4904051;29;20059;-76
2021/09/29 04:54:50;;;;;;;63.05;27.27;;;;;;;15.23;100.00;97876.47;4919360;29;20059;-79
2021/09/29 04:57:19;;;;;;;57.47;27.20;;;;;;;15.24;100.00;97872.63;4903609;29;20143;-80
2021/09/29 04:59:47;;;;;;;57.42;26.67;;;;;;;15.15;100.00;97880.09;4920565;29;20714;-80
2021/09/29 05:02:14;;;;;;;58.25;27.80;;;;;;;15.09;100.00;97867.03;4901953;29;20143;-79
2021/09/29 05:04:41;;;;;;;68.05;29.67;;;;;;;15.18;100.00;97873.16;4884959;29;20512;-80
2021/09/29 05:07:15;;;;;;;65.30;28.27;;;;;;;15.21;100.00;97877.94;4886230;29;20082;-79
2021/09/29 05:09:41;;;;;;;67.00;28.10;;;;;;;15.26;100.00;97873.06;4886206;29;20126;-80
2021/09/29 05:12:20;;;;;;;61.47;27.60;;;;;;;15.20;100.00;97877.16;4899736;29;20512;-80
2021/09/29 05:14:47;;;;;;;59.97;28.17;;;;;;;15.13;100.00;97876.13;4902143;29;20071;-79
2021/09/29 05:17:14;;;;;;;66.25;28.48;;;;;;;15.17;100.00;97880.56;4902536;29;20040;-80
2021/09/29 05:19:41;;;;;;;76.15;30.23;;;;;;;15.04;100.00;97878.16;4901882;29;20040;-80
2021/09/29 05:22:08;;;;;;;68.50;29.17;;;;;;;15.16;100.00;97881.69;4886503;29;20054;-79
2021/09/29 05:24:34;;;;;;;63.80;28.48;;;;;;;15.17;100.00;97877.06;4887347;29;20142;-80
2021/09/29 05:27:01;;;;;;;67.13;28.38;;;;;;;15.30;100.00;97875.94;4886445;29;20077;-81
2021/09/29 05:29:30;;;;;;;66.03;28.27;;;;;;;15.32;100.00;97876.38;4886091;29;20142;-78
2021/09/29 05:31:57;;;;;;;68.97;27.45;;;;;;;15.22;100.00;97868.66;4902921;29;20052;-77
2021/09/29 05:34:24;;;;;;;58.60;27.15;;;;;;;15.18;100.00;97863.06;4886084;29;20063;-80
2021/09/29 05:36:55;;;;;;;70.00;28.45;;;;;;;15.21;100.00;97875.22;4885793;29;20052;-81
2021/09/29 05:39:22;;;;;;;68.03;28.00;;;;;;;15.27;100.00;97871.94;4885560;29;20389;-79
2021/09/29 05:41:49;;;;;;;66.82;27.80;;;;;;;15.27;100.00;97874.69;4918420;29;20087;-81
2021/09/29 05:44:16;;;;;;;61.72;26.67;;;;;;;15.39;100.00;97873.88;4885687;29;20052;-80
2021/09/29 05:46:42;;;;;;;59.40;26.05;;;;;;;15.35;100.00;97873.78;4901505;29;20581;-78
2021/09/29 05:49:09;;;;;;;64.15;28.00;;;;;;;15.37;100.00;97868.78;4885539;29;20082;-79
2021/09/29 05:51:36;;;;;;;67.15;29.23;;;;;;;15.28;100.00;97878.22;4901894;29;20244;-78
2021/09/29 05:54:02;;;;;;;57.75;27.05;;;;;;;15.19;100.00;97877.50;4917365;29;20052;-79
2021/09/29 05:56:29;;;;;;;64.88;27.08;;;;;;;15.27;100.00;97873.88;4886392;29;20052;-80
2021/09/29 05:58:56;;;;;;;60.22;26.40;;;;;;;15.34;100.00;97874.09;4885593;29;20129;-80
2021/09/29 06:01:23;;;;;;;60.13;27.90;;;;;;;15.20;100.00;97876.38;4886827;29;20052;-79
2021/09/29 06:03:50;;;;;;;63.00;28.42;;;;;;;15.38;100.00;97875.81;4888066;29;20537;-79
2021/09/29 06:06:16;;;;;;;56.15;26.35;;;;;;;15.44;100.00;97874.47;4885845;29;20071;-80
2021/09/29 06:08:43;;;;;;;62.30;27.73;;;;;;;15.31;100.00;97872.84;4887943;29;20062;-80
2021/09/29 06:11:10;;;;;;;58.65;25.92;;;;;;;15.35;100.00;97872.97;4886282;29;20309;-80
2021/09/29 06:13:36;;;;;;;66.03;27.05;;;;;;;15.51;100.00;97874.72;4920990;29;20110;-80
2021/09/29 06:16:07;;;;;;;60.55;27.55;;;;;;;15.49;100.00;97884.38;4886745;29;20087;-81
2021/09/29 06:18:39;;;;;;;55.08;26.30;;;;;;;15.36;100.00;97880.81;4886436;29;20476;-81
2021/09/29 06:21:07;;;;;;;62.28;27.60;;;;;;;15.43;100.00;97870.13;4888764;29;20076;-81
2021/09/29 06:23:35;;;;;;;53.30;26.45;;;;;;;15.45;100.00;97886.16;4894124;29;20084;-80
2021/09/29 06:26:03;;;;;;;61.90;26.63;;;;;;;15.40;100.00;97886.41;4888013;29;20052;-78
2021/09/29 06:28:37;;;;;;;56.03;24.98;;;;;;;15.60;100.00;97880.06;4883182;29;20509;-79
2021/09/29 06:31:07;;;;;;;58.55;26.40;;;;;;;15.69;100.00;97883.47;4912164;29;20575;-80
2021/09/29 06:33:34;;;;;;;50.15;24.98;;;;;;;15.75;100.00;97884.03;4881010;29;20075;-79
2021/09/29 06:36:03;;;;;;;52.10;24.75;;;;;;;15.82;100.00;97870.63;4881506;29;20054;-79
2021/09/29 06:38:30;;;;;;;54.67;26.25;;;;;;;15.73;100.00;97867.22;4881491;29;20043;-79
2021/09/29 06:40:56;;;;;;;52.47;25.90;;;;;;;15.54;100.00;97870.50;4881469;29;20055;-79
2021/09/29 06:43:23;;;;;;;60.63;26.95;;;;;;;15.51;100.00;97869.25;4895926;23;20071;-78
2021/09/29 06:45:50;;;;;;;65.60;28.02;;;;;;;15.64;100.00;97870.03;4862827;29;20056;-79
2021/09/29 06:48:18;;;;;;;68.72;32.50;;;;;;;15.76;100.00;97872.00;4863829;29;20048;-79
2021/09/29 06:50:45;;;;;;;62.00;29.77;;;;;;;15.69;100.00;97867.09;4863882;29;20074;-79
2021/09/29 06:53:20;;;;;;;54.95;26.08;;;;;;;15.59;100.00;97867.53;4862785;29;20048;-80
2021/09/29 06:55:50;;;;;;;67.18;27.00;;;;;;;15.55;100.00;97880.28;4898209;29;20048;-80
2021/09/29 06:58:18;;;;;;;51.45;24.92;;;;;;;15.43;100.00;97883.00;4881760;29;20453;-79
2021/09/29 07:00:44;;;;;;;55.75;27.05;;;;;;;15.43;100.00;97872.84;4897491;29;20116;-80
2021/09/29 07:03:15;;;;;;;57.63;26.20;;;;;;;15.42;100.00;97874.00;4881464;29;20063;-78
2021/09/29 07:05:42;;;;;;;59.85;27.67;;;;;;;15.53;100.00;97885.31;4881809;29;20052;-78
2021/09/29 07:08:08;;;;;;;61.10;27.60;;;;;;;15.55;100.00;97883.81;4895822;29;20147;-80
2021/09/29 07:10:38;;;;;;;63.88;27.70;;;;;;;15.63;100.00;97886.78;4881933;29;20048;-80
2021/09/29 07:13:04;;;;;;;68.70;27.40;;;;;;;15.65;100.00;97888.03;4896504;29;20056;-79
2021/09/29 07:15:32;;;;;;;65.55;27.88;;;;;;;15.55;100.00;97881.09;4881330;29;20074;-77
2021/09/29 07:17:59;;;;;;;67.03;27.67;;;;;;;15.41;100.00;97888.78;4881337;29;20044;-79
2021/09/29 07:20:27;;;;;;;60.20;26.45;;;;;;;15.59;100.00;97886.66;4882104;29;20432;-78
2021/09/29 07:22:56;;;;;;;57.33;26.92;;;;;;;15.79;100.00;97885.75;4880611;29;20087;-78
2021/09/29 07:25:24;;;;;;;55.53;26.67;;;;;;;15.90;100.00;97888.78;4896588;29;20484;-78
2021/09/29 07:27:51;;;;;;;51.53;24.42;;;;;;;15.94;100.00;97892.44;4882156;29;20269;-79
2021/09/29 07:30:17;;;;;;;59.38;25.13;;;;;;;15.92;100.00;97908.38;4881245;29;20044;-80
2021/09/29 07:32:46;;;;;;;60.05;26.98;;;;;;;15.89;100.00;97904.41;4880952;29;20107;-81
2021/09/29 07:35:13;;;;;;;56.17;26.17;;;;;;;15.85;100.00;97914.41;4897352;29;20086;-78
2021/09/29 07:37:40;;;;;;;64.95;27.92;;;;;;;15.89;100.00;97926.25;4881587;29;20462;-80
2021/09/29 07:40:08;;;;;;;61.35;26.63;;;;;;;15.67;100.00;97921.22;4883963;29;20147;-81
2021/09/29 07:42:36;;;;;;;61.85;27.38;;;;;;;15.51;100.00;97925.78;4899532;29;20044;-80
2021/09/29 07:45:08;;;;;;;57.70;26.00;;;;;;;15.51;100.00;97914.88;4899253;29;20052;-80
2021/09/29 07:47:35;;;;;;;70.70;33.70;;;;;;;15.34;100.00;97918.56;4900432;29;20143;-78
2021/09/29 07:50:04;;;;;;;56.85;27.92;;;;;;;15.57;100.00;97919.75;4900635;29;20043;-80
2021/09/29 07:52:31;;;;;;;60.22;31.13;;;;;;;15.62;100.00;97917.91;4884575;29;20150;-79
2021/09/29 07:54:57;;;;;;;52.45;26.77;;;;;;;15.68;100.00;97920.09;4900790;29;20466;-79
2021/09/29 07:57:41;;;;;;;53.03;24.92;;;;;;;15.61;100.00;97930.78;4893880;29;20706;-81
2021/09/29 08:00:09;;;;;;;51.90;26.48;;;;;;;15.73;100.00;97935.44;4916127;29;20037;-79
2021/09/29 08:02:35;;;;;;;51.35;24.98;;;;;;;15.84;100.00;97934.66;4884568;29;20052;-79
2021/09/29 08:05:04;;;;;;;52.65;25.15;;;;;;;15.68;100.00;97928.28;4901057;29;20123;-79
2021/09/29 08:07:31;;;;;;;51.50;24.50;;;;;;;15.62;100.00;97935.09;4887873;29;20107;-80
2021/09/29 08:09:58;;;;;;;55.03;25.23;;;;;;;15.58;100.00;97939.66;4887729;29;20135;-79
2021/09/29 08:12:25;;;;;;;53.08;25.48;;;;;;;15.77;100.00;97941.84;4886014;29;20075;-80
2021/09/29 08:14:52;;;;;;;53.55;25.98;;;;;;;15.71;100.00;97935.81;4886551;29;20052;-80
2021/09/29 08:17:19;;;;;;;53.38;25.08;;;;;;;15.78;100.00;97929.75;4885349;29;20082;-80
2021/09/29 08:19:46;;;;;;;52.33;24.98;;;;;;;15.83;100.00;97943.97;4885227;29;20469;-80
2021/09/29 08:22:13;;;;;;;47.13;24.77;;;;;;;15.72;100.00;97942.84;4899237;29;20062;-80
2021/09/29 08:25:17;;;;;;;51.05;24.95;;;;;;;15.71;100.00;97944.00;4965176;23;20680;-78
2021/09/29 08:27:45;;;;;;;52.40;24.55;;;;;;;15.87;100.00;97944.09;4899720;29;20143;-81
2021/09/29 08:30:32;;;;;;;49.78;24.17;;;;;;;15.88;100.00;97953.88;4885517;29;20057;-79
2021/09/29 08:33:31;;;;;;;46.20;24.02;;;;;;;16.00;100.00;97953.91;4884966;29;20343;-80
2021/09/29 08:35:55;;;;;;;43.03;22.83;;;;;;;15.84;100.00;97953.78;4882598;29;20056;-79
2021/09/29 08:38:40;;;;;;;53.17;24.17;;;;;;;16.01;100.00;97958.19;4881046;29;20060;-79
2021/09/29 08:41:38;;;;;;;49.50;24.60;;;;;;;15.91;100.00;97964.13;4881404;29;20116;-81
2021/09/29 08:47:22;;;;;;;39.85;21.45;;;;;;;15.61;100.00;97966.28;4877217;29;20080;-79
2021/09/29 08:50:07;;;;;;;47.53;22.45;;;;;;;15.73;100.00;97968.22;4880747;29;20052;-78
2021/09/29 08:58:21;;;;;;;40.92;20.90;;;;;;;15.51;100.00;97964.00;4880666;29;20052;-79
2021/09/29 09:15:07;;;;;;;37.92;20.85;;;;;;;15.36;100.00;97964.59;4897108;29;20044;-81
2021/09/29 09:17:37;;;;;;;37.22;20.05;;;;;;;15.35;100.00;97963.81;4888803;29;20048;-81
2021/09/29 09:20:16;;;;;;;47.50;21.15;;;;;;;15.39;100.00;97962.00;4880890;29;20191;-80
2021/09/29 09:22:48;;;;;;;36.92;19.35;;;;;;;15.36;100.00;97959.94;4881085;29;20111;-81
2021/09/29 09:25:20;;;;;;;36.38;19.45;;;;;;;15.36;100.00;97954.47;4865324;29;20429;-80
2021/09/29 09:27:55;;;;;;;44.60;21.05;;;;;;;15.26;100.00;97954.91;4880631;29;20052;-80
2021/09/29 09:30:28;;;;;;;43.95;22.33;;;;;;;15.49;100.00;97941.69;4865470;29;20056;-80
2021/09/29 09:32:56;;;;;;;47.15;22.85;;;;;;;15.48;100.00;97942.81;4878942;29;20142;-83
2021/09/29 09:35:27;;;;;;;49.50;23.15;;;;;;;15.60;100.00;97942.84;4863817;29;20052;-80
2021/09/29 09:37:59;;;;;;;40.95;21.20;;;;;;;15.79;100.00;97947.75;4878935;29;20528;-80
2021/09/29 09:40:31;;;;;;;41.58;21.05;;;;;;;15.69;100.00;97946.25;4863551;29;20096;-79
2021/09/29 09:42:58;;;;;;;37.28;19.88;;;;;;;15.80;100.00;97946.59;4878036;29;20053;-79
2021/09/29 09:45:31;;;;;;;34.08;18.58;;;;;;;15.90;100.00;97944.22;4863174;29;20474;-80
2021/09/29 09:47:58;;;;;;;35.45;18.17;;;;;;;15.56;100.00;97942.72;4878605;29;20048;-80
2021/09/29 09:50:28;;;;;;;33.90;18.75;;;;;;;15.83;100.00;97943.19;4863298;29;20055;-79
2021/09/29 09:52:55;;;;;;;28.95;17.20;;;;;;;15.75;100.00;97933.97;4878446;29;20466;-79
2021/09/29 09:55:23;;;;;;;24.67;14.48;;;;;;;15.70;100.00;97917.81;4879522;29;20095;-81
2021/09/29 09:57:55;;;;;;;24.33;13.73;;;;;;;15.87;100.00;97925.00;4864006;29;20120;-80
2021/09/29 10:00:28;;;;;;;22.17;12.65;;;;;;;16.08;100.00;97923.72;4879350;29;20140;-80
2021/09/29 10:02:55;;;;;;;22.58;12.85;;;;;;;16.55;100.00;97910.31;4863676;29;20143;-81
2021/09/29 10:05:26;;;;;;;21.13;12.60;;;;;;;16.93;100.00;97917.25;4879053;29;20048;-81
2021/09/29 10:07:53;;;;;;;22.73;11.73;;;;;;;16.96;100.00;97920.06;4863776;29;20147;-81
2021/09/29 10:24:09;;;;;;;;;;;;;;;16.72;100.00;97901.06;4899232;29;20064;-81
2021/09/29 10:26:36;;;;;;;17.40;11.27;;;;;;;16.46;100.00;97893.25;4898566;29;19958;-79
2021/09/29 10:29:09;;;;;;;19.90;11.88;;;;;;;16.51;100.00;97895.75;4880273;29;20044;-81
2021/09/29 10:31:44;;;;;;;20.42;12.00;;;;;;;16.27;100.00;97897.72;4895382;29;20470;-78
2021/09/29 10:34:40;;;;;;;17.38;11.20;;;;;;;16.38;100.00;97871.53;4879725;29;20072;-79
2021/09/29 10:37:26;;;;;;;18.25;11.73;;;;;;;16.62;100.00;97894.13;4879772;29;20075;-81
2021/09/29 10:43:08;;;;;;;18.55;11.38;;;;;;;16.67;100.00;97876.69;4896455;29;20100;-79
2021/09/29 10:45:46;;;;;;;17.98;11.32;;;;;;;16.71;100.00;97872.09;4872685;29;20071;-80
2021/09/29 11:30:18;;;;;;;9.23;5.50;;;;;;;22.85;100.00;97848.81;4895909;29;20059;-79
2021/09/29 11:33:22;;;;;;;9.02;4.53;;;;;;;22.65;100.00;97837.31;4897700;29;20119;-80
2021/09/29 12:08:48;;;;;;;4.13;1.60;;;;;;;22.15;56.20;97868.56;4877451;29;20044;-79
2021/09/29 12:11:23;;;;;;;3.00;1.40;;;;;;;22.55;57.33;97865.66;4879382;29;20486;-79
2021/09/29 12:13:56;;;;;;;4.90;1.65;;;;;;;23.35;56.80;97867.09;4894697;29;20075;-80
2021/09/29 12:16:35;;;;;;;2.17;1.30;;;;;;;23.53;57.17;97870.69;4878426;29;20144;-79
2021/09/29 12:19:04;;;;;;;3.45;1.42;;;;;;;23.55;53.78;97871.06;4878971;29;20056;-79
2021/09/29 12:21:43;;;;;;;5.43;1.48;;;;;;;23.20;52.90;97882.03;4893013;29;20044;-80
2021/09/29 12:24:13;;;;;;;3.50;1.25;;;;;;;23.03;52.00;97874.50;4894906;29;20041;-79
2021/09/29 12:26:52;;;;;;;5.80;1.42;;;;;;;23.62;51.33;97859.22;4880210;29;20381;-79
2021/09/29 12:29:27;;;;;;;4.15;1.25;;;;;;;24.10;52.71;97854.88;4897273;29;20044;-80
2021/09/29 12:32:05;;;;;;;4.97;1.33;;;;;;;23.39;49.64;97856.84;4882251;29;20112;-80
2021/09/29 12:34:44;;;;;;;3.88;0.98;;;;;;;22.31;50.56;97871.81;4899256;29;20445;-80
2021/09/29 12:37:11;;;;;;;3.75;1.20;;;;;;;22.69;47.23;97871.25;4884094;29;20049;-81
2021/09/29 12:39:43;;;;;;;5.47;1.10;;;;;;;23.51;46.44;97864.75;4901759;29;20071;-80
2021/09/29 12:42:35;;;;;;;3.72;1.13;;;;;;;24.14;43.27;97855.66;4881420;29;20048;-78
2021/09/29 12:45:03;;;;;;;2.33;1.10;;;;;;;24.09;43.54;97855.25;4921278;23;20483;-82
2021/09/29 12:50:09;;;;;;;3.38;1.10;;;;;;;24.59;44.88;97865.00;4905148;29;20059;-83
2021/09/29 12:52:38;;;;;;;2.13;0.90;;;;;;;24.35;45.56;97865.06;4922187;29;20079;-81
2021/09/29 12:55:08;;;;;;;2.85;1.20;;;;;;;23.72;45.64;97871.47;4906933;29;20100;-82
2021/09/29 12:57:43;;;;;;;5.72;1.10;;;;;;;23.66;44.16;97865.56;4921693;29;20116;-82
2021/09/29 13:00:13;;;;;;;5.50;1.30;;;;;;;23.83;44.46;97866.72;4889660;29;20055;-81
2021/09/29 13:02:41;;;;;;;3.00;1.17;;;;;;;24.91;44.41;97869.63;4905937;29;20134;-83
2021/09/29 13:05:08;;;;;;;3.45;1.20;;;;;;;24.88;42.91;97867.69;4907023;29;20036;-82
2021/09/29 13:07:35;;;;;;;1.98;0.93;;;;;;;24.36;44.98;97866.66;4902546;29;20055;-80
2021/09/29 13:10:02;;;;;;;4.82;1.40;;;;;;;23.23;46.25;97864.69;4902524;29;20048;-81
2021/09/29 13:12:30;;;;;;;3.03;1.00;;;;;;;24.26;45.58;97862.72;4920788;29;20044;-81
2021/09/29 13:14:57;;;;;;;2.20;1.02;;;;;;;24.39;45.10;97874.94;4901781;29;20421;-82
2021/09/29 13:17:25;;;;;;;2.88;1.40;;;;;;;24.86;43.87;97865.31;4919146;29;20091;-81
2021/09/29 13:19:57;;;;;;;5.97;1.13;;;;;;;24.20;43.51;97852.47;4918631;29;20546;-80